createdAt,value
2018-09-12T00:00:40.905Z,0.00
2018-09-12T00:01:40.889Z,0.00
2018-09-12T00:02:40.908Z,0.00
2018-09-12T00:03:40.866Z,0.00
2018-09-12T00:04:40.854Z,0.00
2018-09-12T00:05:40.868Z,0.00
2018-09-12T00:06:40.832Z,0.00
2018-09-12T00:07:40.820Z,0.00
2018-09-12T00:08:40.803Z,0.00
2018-09-12T00:09:40.795Z,0.00
2018-09-12T00:10:40.777Z,0.00
2018-09-12T00:11:40.828Z,0.00
2018-09-12T00:12:40.757Z,0.00
2018-09-12T00:13:40.742Z,0.00
2018-09-12T00:14:40.735Z,0.00
2018-09-12T00:15:40.724Z,0.00
2018-09-12T00:16:40.728Z,0.00
2018-09-12T00:17:40.729Z,0.00
2018-09-12T00:18:40.693Z,0.00
2018-09-12T00:19:40.694Z,0.00
2018-09-12T00:20:40.667Z,0.00
2018-09-12T00:21:40.660Z,0.00
2018-09-12T00:22:40.648Z,0.00
2018-09-12T00:23:40.666Z,0.00
2018-09-12T00:24:40.633Z,0.00
2018-09-12T00:25:40.622Z,0.00
2018-09-12T00:26:40.605Z,0.00
2018-09-12T00:27:40.600Z,0.00
2018-09-12T00:28:40.580Z,0.00
2018-09-12T00:29:40.651Z,0.00
2018-09-12T00:30:40.562Z,0.00
2018-09-12T00:31:40.554Z,0.00
2018-09-12T00:32:40.537Z,0.00
2018-09-12T00:33:40.532Z,0.00
2018-09-12T00:34:40.516Z,0.00
2018-09-12T00:35:40.538Z,0.00
2018-09-12T00:36:40.570Z,0.00
2018-09-12T00:37:40.487Z,0.00
2018-09-12T00:38:40.512Z,0.00
2018-09-12T00:39:40.455Z,0.00
2018-09-12T00:40:40.454Z,0.00
2018-09-12T00:41:40.473Z,0.00
2018-09-12T00:42:40.451Z,0.00
2018-09-12T00:43:40.412Z,0.00
2018-09-12T00:44:40.428Z,0.00
2018-09-12T00:45:40.409Z,0.00
2018-09-12T00:46:40.394Z,0.00
2018-09-12T00:47:40.415Z,0.00
2018-09-12T00:48:40.381Z,0.00
2018-09-12T00:49:40.353Z,0.00
2018-09-12T00:50:40.344Z,0.00
2018-09-12T00:51:40.330Z,0.00
2018-09-12T00:52:40.316Z,0.00
2018-09-12T00:53:40.331Z,0.00
2018-09-12T00:54:40.323Z,0.00
2018-09-12T00:55:40.283Z,0.00
2018-09-12T00:56:40.267Z,0.00
2018-09-12T00:57:40.273Z,0.00
2018-09-12T00:58:40.257Z,0.00
2018-09-12T00:59:40.269Z,0.00
2018-09-12T01:00:40.226Z,0.00
2018-09-12T01:01:40.222Z,0.00
2018-09-12T01:02:40.201Z,0.00
2018-09-12T01:03:40.192Z,0.00
2018-09-12T01:04:40.190Z,0.00
2018-09-12T01:05:40.209Z,0.00
2018-09-12T01:06:40.159Z,0.00
2018-09-12T01:07:40.153Z,0.00
2018-09-12T01:08:40.174Z,0.00
2018-09-12T01:09:40.130Z,0.00
2018-09-12T01:10:40.125Z,0.00
2018-09-12T01:11:40.149Z,0.00
2018-09-12T01:12:40.106Z,0.00
2018-09-12T01:13:40.078Z,0.00
2018-09-12T01:14:40.077Z,0.00
2018-09-12T01:15:40.077Z,0.00
2018-09-12T01:16:40.053Z,0.00
2018-09-12T01:17:40.072Z,0.00
2018-09-12T01:18:40.026Z,0.00
2018-09-12T01:19:40.025Z,0.00
2018-09-12T01:20:40.000Z,0.00
2018-09-12T01:21:39.993Z,0.00
2018-09-12T01:22:39.995Z,0.00
2018-09-12T01:23:40.024Z,0.00
2018-09-12T01:24:39.964Z,0.00
2018-09-12T01:25:39.944Z,0.00
2018-09-12T01:26:39.939Z,0.00
2018-09-12T01:27:39.933Z,0.00
2018-09-12T01:28:39.936Z,0.00
2018-09-12T01:29:39.943Z,0.00
2018-09-12T01:30:39.888Z,0.00
2018-09-12T01:31:39.876Z,0.00
2018-09-12T01:32:39.875Z,0.00
2018-09-12T01:33:39.854Z,0.00
2018-09-12T01:34:39.849Z,0.00
2018-09-12T01:35:40.028Z,0.00
2018-09-12T01:36:39.828Z,0.00
2018-09-12T01:37:39.831Z,0.00
2018-09-12T01:38:39.808Z,0.00
2018-09-12T01:39:39.797Z,0.00
2018-09-12T01:40:39.776Z,0.00
2018-09-12T01:41:39.829Z,0.00
2018-09-12T01:42:39.754Z,0.00
2018-09-12T01:43:39.746Z,0.00
2018-09-12T01:44:39.734Z,0.00
2018-09-12T01:45:39.719Z,0.00
2018-09-12T01:46:39.709Z,0.00
2018-09-12T01:47:39.728Z,0.00
2018-09-12T01:48:39.691Z,0.00
2018-09-12T01:49:39.713Z,0.00
2018-09-12T01:50:39.672Z,0.00
2018-09-12T01:51:39.653Z,0.00
2018-09-12T01:52:39.666Z,0.00
2018-09-12T01:53:39.664Z,0.00
2018-09-12T01:54:39.625Z,0.00
2018-09-12T01:55:39.621Z,0.00
2018-09-12T01:56:39.600Z,0.00
2018-09-12T01:57:39.584Z,0.00
2018-09-12T01:58:39.576Z,0.00
2018-09-12T01:59:39.616Z,0.00
2018-09-12T02:00:39.571Z,0.00
2018-09-12T02:01:39.543Z,0.00
2018-09-12T02:02:39.531Z,0.00
2018-09-12T02:03:39.523Z,0.00
2018-09-12T02:04:39.511Z,0.00
2018-09-12T02:05:39.525Z,0.00
2018-09-12T02:06:39.493Z,0.00
2018-09-12T02:07:39.484Z,0.00
2018-09-12T02:08:39.470Z,0.00
2018-09-12T02:09:39.450Z,0.00
2018-09-12T02:10:39.438Z,0.00
2018-09-12T02:11:39.477Z,0.00
2018-09-12T02:12:39.422Z,0.00
2018-09-12T02:13:39.430Z,0.00
2018-09-12T02:14:39.399Z,0.00
2018-09-12T02:15:39.405Z,0.00
2018-09-12T02:16:39.378Z,0.00
2018-09-12T02:17:39.405Z,0.00
2018-09-12T02:18:39.359Z,0.00
2018-09-12T02:19:39.340Z,0.00
2018-09-12T02:20:39.331Z,0.00
2018-09-12T02:21:39.321Z,0.00
2018-09-12T02:22:39.308Z,0.00
2018-09-12T02:23:39.328Z,0.00
2018-09-12T02:24:39.288Z,0.00
2018-09-12T02:25:39.278Z,0.00
2018-09-12T02:26:39.268Z,0.00
2018-09-12T02:27:39.272Z,0.00
2018-09-12T02:28:39.237Z,0.00
2018-09-12T02:29:39.271Z,0.00
2018-09-12T02:30:39.219Z,0.00
2018-09-12T02:31:39.224Z,0.00
2018-09-12T02:32:39.200Z,0.00
2018-09-12T02:33:39.188Z,0.00
2018-09-12T02:34:39.194Z,0.00
2018-09-12T02:35:39.209Z,0.00
2018-09-12T02:36:39.151Z,0.00
2018-09-12T02:37:39.139Z,0.00
2018-09-12T02:38:39.128Z,0.00
2018-09-12T02:39:39.118Z,0.00
2018-09-12T02:40:39.104Z,0.00
2018-09-12T02:41:39.142Z,0.00
2018-09-12T02:42:39.096Z,0.00
2018-09-12T02:43:39.084Z,0.00
2018-09-12T02:44:39.071Z,0.00
2018-09-12T02:45:39.069Z,0.00
2018-09-12T02:46:39.043Z,0.00
2018-09-12T02:47:39.066Z,0.00
2018-09-12T02:48:39.037Z,0.00
2018-09-12T02:49:39.046Z,0.00
2018-09-12T02:50:39.022Z,0.00
2018-09-12T02:51:39.026Z,0.00
2018-09-12T02:52:38.979Z,0.00
2018-09-12T02:53:39.021Z,0.00
2018-09-12T02:54:38.956Z,0.00
2018-09-12T02:55:38.950Z,0.00
2018-09-12T02:56:38.964Z,0.00
2018-09-12T02:57:38.944Z,0.00
2018-09-12T02:58:38.923Z,0.00
2018-09-12T02:59:38.934Z,0.00
2018-09-12T03:00:38.909Z,0.00
2018-09-12T03:01:38.881Z,0.00
2018-09-12T03:02:38.895Z,0.00
2018-09-12T03:03:38.859Z,0.00
2018-09-12T03:04:38.848Z,0.00
2018-09-12T03:05:38.865Z,0.00
2018-09-12T03:06:38.822Z,0.00
2018-09-12T03:07:38.826Z,0.00
2018-09-12T03:08:38.814Z,0.00
2018-09-12T03:09:38.802Z,0.00
2018-09-12T03:10:38.784Z,0.00
2018-09-12T03:11:38.821Z,0.00
2018-09-12T03:12:38.762Z,0.00
2018-09-12T03:13:38.760Z,0.00
2018-09-12T03:14:38.739Z,0.00
2018-09-12T03:15:38.759Z,0.00
2018-09-12T03:16:38.729Z,0.00
2018-09-12T03:17:38.738Z,0.00
2018-09-12T03:18:38.694Z,0.00
2018-09-12T03:19:38.695Z,0.00
2018-09-12T03:20:38.735Z,0.00
2018-09-12T03:21:38.672Z,0.00
2018-09-12T03:22:38.653Z,0.00
2018-09-12T03:23:38.699Z,0.00
2018-09-12T03:24:38.637Z,0.00
2018-09-12T03:25:38.633Z,0.00
2018-09-12T03:26:38.656Z,0.00
2018-09-12T03:27:38.600Z,0.00
2018-09-12T03:28:38.588Z,0.00
2018-09-12T03:29:38.614Z,0.00
2018-09-12T03:30:38.574Z,0.00
2018-09-12T03:31:38.570Z,0.00
2018-09-12T03:32:38.571Z,0.00
2018-09-12T03:33:38.546Z,0.00
2018-09-12T03:34:38.521Z,0.00
2018-09-12T03:35:38.553Z,0.00
2018-09-12T03:36:38.510Z,0.00
2018-09-12T03:37:38.511Z,0.00
2018-09-12T03:38:38.481Z,0.00
2018-09-12T03:39:38.470Z,0.00
2018-09-12T03:40:38.455Z,0.00
2018-09-12T03:41:38.476Z,0.00
2018-09-12T03:42:38.445Z,0.00
2018-09-12T03:43:38.430Z,0.00
2018-09-12T03:44:38.416Z,0.00
2018-09-12T03:45:38.401Z,0.00
2018-09-12T03:46:38.390Z,0.00
2018-09-12T03:47:38.416Z,0.00
2018-09-12T03:48:38.370Z,0.00
2018-09-12T03:49:38.376Z,0.00
2018-09-12T03:50:38.349Z,0.00
2018-09-12T03:51:38.352Z,0.00
2018-09-12T03:52:38.329Z,0.00
2018-09-12T03:53:38.356Z,0.00
2018-09-12T03:54:38.305Z,0.00
2018-09-12T03:55:38.295Z,0.00
2018-09-12T03:56:38.292Z,0.00
2018-09-12T03:57:38.276Z,0.00
2018-09-12T03:58:38.307Z,0.00
2018-09-12T03:59:38.289Z,0.00
2018-09-12T04:00:38.246Z,0.00
2018-09-12T04:01:38.231Z,0.00
2018-09-12T04:02:38.232Z,0.00
2018-09-12T04:03:38.227Z,0.00
2018-09-12T04:04:38.212Z,0.00
2018-09-12T04:05:38.225Z,0.00
2018-09-12T04:06:38.176Z,0.00
2018-09-12T04:07:38.172Z,0.00
2018-09-12T04:08:38.165Z,0.00
2018-09-12T04:09:38.142Z,0.00
2018-09-12T04:10:38.136Z,0.00
2018-09-12T04:11:38.163Z,0.00
2018-09-12T04:12:38.154Z,0.00
2018-09-12T04:13:38.106Z,0.00
2018-09-12T04:14:38.093Z,0.00
2018-09-12T04:15:38.086Z,0.00
2018-09-12T04:16:38.264Z,0.00
2018-09-12T04:17:38.091Z,0.00
2018-09-12T04:18:38.056Z,0.00
2018-09-12T04:19:38.072Z,0.00
2018-09-12T04:20:38.028Z,0.00
2018-09-12T04:21:38.014Z,0.00
2018-09-12T04:22:38.010Z,0.00
2018-09-12T04:23:38.032Z,0.00
2018-09-12T04:24:38.025Z,0.00
2018-09-12T04:25:38.131Z,0.00
2018-09-12T04:26:38.133Z,0.00
2018-09-12T04:27:37.954Z,0.00
2018-09-12T04:28:37.967Z,0.00
2018-09-12T04:29:38.002Z,0.00
2018-09-12T04:30:37.924Z,0.00
2018-09-12T04:31:37.916Z,0.00
2018-09-12T04:32:37.904Z,0.00
2018-09-12T04:33:37.899Z,0.00
2018-09-12T04:34:37.887Z,0.00
2018-09-12T04:35:37.929Z,0.00
2018-09-12T04:36:37.864Z,0.00
2018-09-12T04:37:37.847Z,0.00
2018-09-12T04:38:37.836Z,0.00
2018-09-12T04:39:37.822Z,0.00
2018-09-12T04:40:37.822Z,0.00
2018-09-12T04:41:37.858Z,0.00
2018-09-12T04:42:37.860Z,0.00
2018-09-12T04:43:37.790Z,0.00
2018-09-12T04:44:37.769Z,0.00
2018-09-12T04:45:37.791Z,0.00
2018-09-12T04:46:37.747Z,0.00
2018-09-12T04:47:37.799Z,0.00
2018-09-12T04:48:37.842Z,0.00
2018-09-12T04:49:37.720Z,0.00
2018-09-12T04:50:37.703Z,0.00
2018-09-12T04:51:37.702Z,0.00
2018-09-12T04:52:37.686Z,0.00
2018-09-12T04:53:37.727Z,0.00
2018-09-12T04:54:37.670Z,5.62
2018-09-12T04:55:37.648Z,5.62
2018-09-12T04:56:37.643Z,5.62
2018-09-12T04:57:37.632Z,5.62
2018-09-12T04:58:37.617Z,5.62
2018-09-12T04:59:37.661Z,5.62
2018-09-12T05:00:37.629Z,11.25
2018-09-12T05:01:37.589Z,11.25
2018-09-12T05:02:37.627Z,11.25
2018-09-12T05:03:37.565Z,11.25
2018-09-12T05:04:37.557Z,16.88
2018-09-12T05:05:37.590Z,16.88
2018-09-12T05:06:37.534Z,16.88
2018-09-12T05:07:37.529Z,22.50
2018-09-12T05:08:37.535Z,22.50
2018-09-12T05:09:37.499Z,22.50
2018-09-12T05:10:37.495Z,28.12
2018-09-12T05:11:37.514Z,28.12
2018-09-12T05:12:37.473Z,28.12
2018-09-12T05:13:37.451Z,33.75
2018-09-12T05:14:37.442Z,33.75
2018-09-12T05:15:37.445Z,33.75
2018-09-12T05:16:37.473Z,39.38
2018-09-12T05:17:37.468Z,39.38
2018-09-12T05:18:37.412Z,45.00
2018-09-12T05:19:37.395Z,45.00
2018-09-12T05:20:37.389Z,50.62
2018-09-12T05:21:37.374Z,50.62
2018-09-12T05:22:37.389Z,50.62
2018-09-12T05:23:37.376Z,56.25
2018-09-12T05:24:37.339Z,56.25
2018-09-12T05:25:37.365Z,61.88
2018-09-12T05:26:37.317Z,61.88
2018-09-12T05:27:37.310Z,67.50
2018-09-12T05:28:37.376Z,67.50
2018-09-12T05:29:37.338Z,73.12
2018-09-12T05:30:37.268Z,73.12
2018-09-12T05:31:37.275Z,78.75
2018-09-12T05:32:37.273Z,78.75
2018-09-12T05:33:37.251Z,84.38
2018-09-12T05:34:46.902Z,84.38
2018-09-12T05:35:45.054Z,90.00
2018-09-12T05:36:45.135Z,90.00
2018-09-12T05:37:45.073Z,95.62
2018-09-12T05:38:45.212Z,95.62
2018-09-12T05:39:45.180Z,101.25
2018-09-12T05:40:46.636Z,101.25
2018-09-12T05:41:45.171Z,101.25
2018-09-12T05:42:37.136Z,106.88
2018-09-12T05:43:37.124Z,106.88
2018-09-12T05:44:37.117Z,112.50
2018-09-12T05:45:37.317Z,112.50
2018-09-12T05:46:37.133Z,118.12
2018-09-12T05:47:37.089Z,118.12
2018-09-12T05:48:37.091Z,123.75
2018-09-12T05:49:37.068Z,123.75
2018-09-12T05:50:37.094Z,129.38
2018-09-12T05:51:37.052Z,129.38
2018-09-12T05:52:37.102Z,129.38
2018-09-12T05:53:37.019Z,135.00
2018-09-12T05:54:37.021Z,135.00
2018-09-12T05:55:37.030Z,140.62
2018-09-12T05:56:37.012Z,140.62
2018-09-12T05:57:36.984Z,140.62
2018-09-12T05:58:37.005Z,146.25
2018-09-12T05:59:37.031Z,146.25
2018-09-12T06:00:36.955Z,151.88
2018-09-12T06:01:36.945Z,151.88
2018-09-12T06:02:36.942Z,151.88
2018-09-12T06:03:36.928Z,157.50
2018-09-12T06:04:36.936Z,157.50
2018-09-12T06:05:36.887Z,163.12
2018-09-12T06:06:36.918Z,163.12
2018-09-12T06:07:36.878Z,163.12
2018-09-12T06:08:36.873Z,168.75
2018-09-12T06:09:36.849Z,168.75
2018-09-12T06:10:36.876Z,168.75
2018-09-12T06:11:36.829Z,174.38
2018-09-12T06:12:36.818Z,174.38
2018-09-12T06:13:36.837Z,174.38
2018-09-12T06:14:36.793Z,174.38
2018-09-12T06:15:36.779Z,174.38
2018-09-12T06:16:36.811Z,180.00
2018-09-12T06:17:36.756Z,180.00
2018-09-12T06:18:36.755Z,180.00
2018-09-12T06:19:36.740Z,185.62
2018-09-12T06:20:36.909Z,185.62
2018-09-12T06:21:36.754Z,185.62
2018-09-12T06:22:36.739Z,191.25
2018-09-12T06:23:36.687Z,191.25
2018-09-12T06:24:36.678Z,191.25
2018-09-12T06:25:36.668Z,191.25
2018-09-12T06:26:36.678Z,196.88
2018-09-12T06:27:36.648Z,196.88
2018-09-12T06:28:36.679Z,196.88
2018-09-12T06:29:36.671Z,202.50
2018-09-12T06:30:36.615Z,202.50
2018-09-12T06:31:36.600Z,202.50
2018-09-12T06:32:36.608Z,202.50
2018-09-12T06:33:36.587Z,208.12
2018-09-12T06:34:36.643Z,208.12
2018-09-12T06:35:36.563Z,208.12
2018-09-12T06:36:36.545Z,213.75
2018-09-12T06:37:36.533Z,213.75
2018-09-12T06:38:36.581Z,213.75
2018-09-12T06:39:36.524Z,213.75
2018-09-12T06:40:36.560Z,219.38
2018-09-12T06:41:36.496Z,219.38
2018-09-12T06:42:36.480Z,219.38
2018-09-12T06:43:36.494Z,219.38
2018-09-12T06:44:36.454Z,219.38
2018-09-12T06:45:36.444Z,225.00
2018-09-12T06:46:36.473Z,225.00
2018-09-12T06:47:36.423Z,225.00
2018-09-12T06:48:36.410Z,225.00
2018-09-12T06:49:36.398Z,225.00
2018-09-12T06:50:36.400Z,230.62
2018-09-12T06:51:36.378Z,230.62
2018-09-12T06:52:36.395Z,230.62
2018-09-12T06:53:36.372Z,230.62
2018-09-12T06:54:36.347Z,230.62
2018-09-12T06:55:36.330Z,236.25
2018-09-12T06:56:36.322Z,236.25
2018-09-12T06:57:36.317Z,236.25
2018-09-12T06:58:36.349Z,236.25
2018-09-12T06:59:36.289Z,236.25
2018-09-12T07:00:36.287Z,241.88
2018-09-12T07:01:36.271Z,241.88
2018-09-12T07:02:36.258Z,241.88
2018-09-12T07:03:36.261Z,241.88
2018-09-12T07:04:36.277Z,241.88
2018-09-12T07:05:36.222Z,247.50
2018-09-12T07:06:36.229Z,247.50
2018-09-12T07:07:36.206Z,247.50
2018-09-12T07:08:36.192Z,247.50
2018-09-12T07:09:36.186Z,247.50
2018-09-12T07:10:36.200Z,247.50
2018-09-12T07:11:36.161Z,253.12
2018-09-12T07:12:36.145Z,253.12
2018-09-12T07:13:36.140Z,253.12
2018-09-12T07:14:36.122Z,253.12
2018-09-12T07:15:36.154Z,253.12
2018-09-12T07:16:36.135Z,253.12
2018-09-12T07:17:36.096Z,258.75
2018-09-12T07:18:36.083Z,258.75
2018-09-12T07:19:36.075Z,258.75
2018-09-12T07:20:36.064Z,258.75
2018-09-12T07:21:36.065Z,258.75
2018-09-12T07:22:36.085Z,258.75
2018-09-12T07:23:36.026Z,264.38
2018-09-12T07:24:36.173Z,264.38
2018-09-12T07:25:36.003Z,264.38
2018-09-12T07:26:35.993Z,264.38
2018-09-12T07:27:36.035Z,264.38
2018-09-12T07:28:36.010Z,264.38
2018-09-12T07:29:35.958Z,270.00
2018-09-12T07:30:36.002Z,270.00
2018-09-12T07:31:35.940Z,270.00
2018-09-12T07:32:35.926Z,270.00
2018-09-12T07:33:35.940Z,270.00
2018-09-12T07:34:35.939Z,270.00
2018-09-12T07:35:35.890Z,270.00
2018-09-12T07:36:35.884Z,275.62
2018-09-12T07:37:35.871Z,275.62
2018-09-12T07:38:35.863Z,275.62
2018-09-12T07:39:35.883Z,275.62
2018-09-12T07:40:35.875Z,275.62
2018-09-12T07:41:35.854Z,275.62
2018-09-12T07:42:35.815Z,275.62
2018-09-12T07:43:35.802Z,275.62
2018-09-12T07:44:35.793Z,281.25
2018-09-12T07:45:35.798Z,281.25
2018-09-12T07:46:35.805Z,281.25
2018-09-12T07:47:35.765Z,281.25
2018-09-12T07:48:35.750Z,281.25
2018-09-12T07:49:35.740Z,281.25
2018-09-12T07:50:35.730Z,281.25
2018-09-12T07:51:35.716Z,281.25
2018-09-12T07:52:35.769Z,281.25
2018-09-12T07:53:35.702Z,281.25
2018-09-12T07:54:35.696Z,286.88
2018-09-12T07:55:35.673Z,286.88
2018-09-12T07:56:35.663Z,286.88
2018-09-12T07:57:35.650Z,286.88
2018-09-12T07:58:35.699Z,286.88
2018-09-12T07:59:35.630Z,286.88
2018-09-12T08:00:35.621Z,286.88
2018-09-12T08:01:35.609Z,286.88
2018-09-12T08:02:35.595Z,286.88
2018-09-12T08:03:35.618Z,286.88
2018-09-12T08:04:35.642Z,292.50
2018-09-12T08:05:35.565Z,292.50
2018-09-12T08:06:35.555Z,292.50
2018-09-12T08:07:35.546Z,292.50
2018-09-12T08:08:35.531Z,292.50
2018-09-12T08:09:35.524Z,292.50
2018-09-12T08:10:35.568Z,292.50
2018-09-12T08:11:35.498Z,292.50
2018-09-12T08:12:35.491Z,292.50
2018-09-12T08:13:35.475Z,292.50
2018-09-12T08:14:35.467Z,298.12
2018-09-12T08:15:35.460Z,298.12
2018-09-12T08:16:35.505Z,298.12
2018-09-12T08:17:35.442Z,298.12
2018-09-12T08:18:35.420Z,298.12
2018-09-12T08:19:35.461Z,298.12
2018-09-12T08:20:35.399Z,298.12
2018-09-12T08:21:35.391Z,298.12
2018-09-12T08:22:35.447Z,298.12
2018-09-12T08:23:35.370Z,298.12
2018-09-12T08:24:35.358Z,298.12
2018-09-12T08:25:35.346Z,298.12
2018-09-12T08:26:35.364Z,298.12
2018-09-12T08:27:35.325Z,298.12
2018-09-12T08:28:35.365Z,298.12
2018-09-12T08:29:35.302Z,303.75
2018-09-12T08:30:35.297Z,303.75
2018-09-12T08:31:35.290Z,303.75
2018-09-12T08:32:35.271Z,303.75
2018-09-12T08:33:35.262Z,303.75
2018-09-12T08:34:35.309Z,303.75
2018-09-12T08:35:35.240Z,303.75
2018-09-12T08:36:35.326Z,303.75
2018-09-12T08:37:35.217Z,303.75
2018-09-12T08:38:35.207Z,303.75
2018-09-12T08:39:35.196Z,303.75
2018-09-12T08:40:35.217Z,303.75
2018-09-12T08:41:35.224Z,303.75
2018-09-12T08:42:35.280Z,303.75
2018-09-12T08:43:35.155Z,303.75
2018-09-12T08:44:35.144Z,303.75
2018-09-12T08:45:35.136Z,303.75
2018-09-12T08:46:35.157Z,303.75
2018-09-12T08:47:35.133Z,303.75
2018-09-12T08:48:35.102Z,303.75
2018-09-12T08:49:35.130Z,303.75
2018-09-12T08:50:35.081Z,303.75
2018-09-12T08:51:35.071Z,303.75
2018-09-12T08:52:35.097Z,309.38
2018-09-12T08:53:35.071Z,309.38
2018-09-12T08:54:35.037Z,309.38
2018-09-12T08:55:35.046Z,309.38
2018-09-12T08:56:35.066Z,309.38
2018-09-12T08:57:35.013Z,309.38
2018-09-12T08:58:35.034Z,309.38
2018-09-12T08:59:34.991Z,309.38
2018-09-12T09:00:34.977Z,315.00
2018-09-12T09:01:35.020Z,315.00
2018-09-12T09:02:34.976Z,320.62
2018-09-12T09:03:34.944Z,320.62
2018-09-12T09:04:35.009Z,326.25
2018-09-12T09:05:34.923Z,326.25
2018-09-12T09:06:34.913Z,337.50
2018-09-12T09:07:34.903Z,354.38
2018-09-12T09:08:34.937Z,354.38
2018-09-12T09:09:34.876Z,343.12
2018-09-12T09:10:34.973Z,343.12
2018-09-12T09:11:34.854Z,343.12
2018-09-12T09:12:34.850Z,337.50
2018-09-12T09:13:34.833Z,348.75
2018-09-12T09:14:34.836Z,360.00
2018-09-12T09:15:34.808Z,365.62
2018-09-12T09:16:34.830Z,354.38
2018-09-12T09:17:34.806Z,343.12
2018-09-12T09:18:34.775Z,331.88
2018-09-12T09:19:34.764Z,326.25
2018-09-12T09:20:34.766Z,320.62
2018-09-12T09:21:34.743Z,320.62
2018-09-12T09:22:34.761Z,320.62
2018-09-12T09:23:34.781Z,320.62
2018-09-12T09:24:34.709Z,320.62
2018-09-12T09:25:34.700Z,320.62
2018-09-12T09:26:34.715Z,315.00
2018-09-12T09:27:34.679Z,281.25
2018-09-12T09:28:34.705Z,303.75
2018-09-12T09:29:34.664Z,331.88
2018-09-12T09:30:34.647Z,326.25
2018-09-12T09:31:34.640Z,326.25
2018-09-12T09:32:34.652Z,326.25
2018-09-12T09:33:34.617Z,326.25
2018-09-12T09:34:34.642Z,326.25
2018-09-12T09:35:34.713Z,326.25
2018-09-12T09:36:34.582Z,326.25
2018-09-12T09:37:34.569Z,326.25
2018-09-12T09:38:34.578Z,326.25
2018-09-12T09:39:34.551Z,326.25
2018-09-12T09:40:34.568Z,326.25
2018-09-12T09:41:34.569Z,326.25
2018-09-12T09:42:34.515Z,326.25
2018-09-12T09:43:34.507Z,331.88
2018-09-12T09:44:34.523Z,331.88
2018-09-12T09:45:34.481Z,331.88
2018-09-12T09:46:34.522Z,331.88
2018-09-12T09:47:34.462Z,331.88
2018-09-12T09:48:34.455Z,331.88
2018-09-12T09:49:34.441Z,331.88
2018-09-12T09:50:34.432Z,331.88
2018-09-12T09:51:34.436Z,337.50
2018-09-12T09:52:34.437Z,337.50
2018-09-12T09:53:34.395Z,337.50
2018-09-12T09:54:34.393Z,337.50
2018-09-12T09:55:34.400Z,343.12
2018-09-12T09:56:34.366Z,343.12
2018-09-12T09:57:34.377Z,343.12
2018-09-12T09:58:34.377Z,343.12
2018-09-12T09:59:34.337Z,343.12
2018-09-12T10:00:34.317Z,343.12
2018-09-12T10:01:34.310Z,348.75
2018-09-12T10:02:34.299Z,348.75
2018-09-12T10:03:34.283Z,354.38
2018-09-12T10:04:34.387Z,354.38
2018-09-12T10:05:34.261Z,360.00
2018-09-12T10:06:34.253Z,360.00
2018-09-12T10:07:34.240Z,371.25
2018-09-12T10:08:34.228Z,371.25
2018-09-12T10:09:34.218Z,376.88
2018-09-12T10:10:34.267Z,365.62
2018-09-12T10:11:34.193Z,360.00
2018-09-12T10:12:34.191Z,365.62
2018-09-12T10:13:34.177Z,365.62
2018-09-12T10:14:34.167Z,365.62
2018-09-12T10:15:34.149Z,365.62
2018-09-12T10:16:34.199Z,360.00
2018-09-12T10:17:34.132Z,360.00
2018-09-12T10:18:34.129Z,360.00
2018-09-12T10:19:34.109Z,365.62
2018-09-12T10:20:34.097Z,365.62
2018-09-12T10:21:34.092Z,371.25
2018-09-12T10:22:34.151Z,376.88
2018-09-12T10:23:34.065Z,382.50
2018-09-12T10:24:34.055Z,388.12
2018-09-12T10:25:34.038Z,410.62
2018-09-12T10:26:34.029Z,438.75
2018-09-12T10:27:34.035Z,427.50
2018-09-12T10:28:34.057Z,433.12
2018-09-12T10:29:34.005Z,433.12
2018-09-12T10:30:33.985Z,382.50
2018-09-12T10:31:33.971Z,371.25
2018-09-12T10:32:33.963Z,393.75
2018-09-12T10:33:33.951Z,455.62
2018-09-12T10:34:33.992Z,438.75
2018-09-12T10:35:33.944Z,427.50
2018-09-12T10:36:33.935Z,371.25
2018-09-12T10:37:33.914Z,410.62
2018-09-12T10:38:33.897Z,399.38
2018-09-12T10:39:33.885Z,371.25
2018-09-12T10:40:33.917Z,354.38
2018-09-12T10:41:33.864Z,365.62
2018-09-12T10:42:33.874Z,365.62
2018-09-12T10:43:33.851Z,388.12
2018-09-12T10:44:33.839Z,382.50
2018-09-12T10:45:33.824Z,405.00
2018-09-12T10:46:42.729Z,427.50
2018-09-12T10:47:41.672Z,438.75
2018-09-12T10:48:33.787Z,455.62
2018-09-12T10:49:33.777Z,461.25
2018-09-12T10:50:33.769Z,466.88
2018-09-12T10:51:33.756Z,478.12
2018-09-12T10:52:33.780Z,500.62
2018-09-12T10:53:33.732Z,511.88
2018-09-12T10:54:33.727Z,506.25
2018-09-12T10:55:33.737Z,495.00
2018-09-12T10:56:33.704Z,478.12
2018-09-12T10:57:33.691Z,483.75
2018-09-12T10:58:33.753Z,500.62
2018-09-12T10:59:33.670Z,511.88
2018-09-12T11:00:33.667Z,511.88
2018-09-12T11:01:33.645Z,421.88
2018-09-12T11:02:33.638Z,393.75
2018-09-12T11:03:33.633Z,365.62
2018-09-12T11:04:33.694Z,371.25
2018-09-12T11:05:33.605Z,444.38
2018-09-12T11:06:33.591Z,466.88
2018-09-12T11:07:33.582Z,483.75
2018-09-12T11:08:33.614Z,495.00
2018-09-12T11:09:33.563Z,506.25
2018-09-12T11:10:33.582Z,523.12
2018-09-12T11:11:33.572Z,534.38
2018-09-12T11:12:33.539Z,568.12
2018-09-12T11:13:33.520Z,585.00
2018-09-12T11:14:33.562Z,568.12
2018-09-12T11:15:33.499Z,562.50
2018-09-12T11:16:33.528Z,534.38
2018-09-12T11:17:33.477Z,511.88
2018-09-12T11:18:33.469Z,478.12
2018-09-12T11:19:33.456Z,455.62
2018-09-12T11:20:33.443Z,438.75
2018-09-12T11:21:33.439Z,416.25
2018-09-12T11:22:33.462Z,545.62
2018-09-12T11:23:33.412Z,483.75
2018-09-12T11:24:33.413Z,360.00
2018-09-12T11:25:33.392Z,371.25
2018-09-12T11:26:33.380Z,393.75
2018-09-12T11:27:33.381Z,613.12
2018-09-12T11:28:33.398Z,607.50
2018-09-12T11:29:33.348Z,618.75
2018-09-12T11:30:33.356Z,590.62
2018-09-12T11:31:33.327Z,410.62
2018-09-12T11:32:33.316Z,556.88
2018-09-12T11:33:33.312Z,697.50
2018-09-12T11:34:33.340Z,579.38
2018-09-12T11:35:33.285Z,528.75
2018-09-12T11:36:33.306Z,427.50
2018-09-12T11:37:33.264Z,444.38
2018-09-12T11:38:33.256Z,894.38
2018-09-12T11:39:33.244Z,933.75
2018-09-12T11:40:33.275Z,1012.50
2018-09-12T11:41:33.226Z,1029.38
2018-09-12T11:42:33.231Z,455.62
2018-09-12T11:43:33.206Z,1006.88
2018-09-12T11:44:33.196Z,1057.50
2018-09-12T11:45:33.180Z,1035.00
2018-09-12T11:46:33.199Z,450.00
2018-09-12T11:47:33.157Z,1023.75
2018-09-12T11:48:33.146Z,1113.75
2018-09-12T11:49:33.155Z,1141.88
2018-09-12T11:50:33.128Z,1147.50
2018-09-12T11:51:33.115Z,1141.88
2018-09-12T11:52:33.147Z,1164.38
2018-09-12T11:53:33.096Z,1215.00
2018-09-12T11:54:33.090Z,1237.50
2018-09-12T11:55:33.117Z,1260.00
2018-09-12T11:56:33.066Z,1254.38
2018-09-12T11:57:33.075Z,849.38
2018-09-12T11:58:33.078Z,1271.25
2018-09-12T11:59:33.034Z,995.62
2018-09-12T12:00:33.024Z,1327.50
2018-09-12T12:01:33.010Z,1305.00
2018-09-12T12:02:33.013Z,1321.88
2018-09-12T12:03:32.987Z,1350.00
2018-09-12T12:04:33.023Z,1338.75
2018-09-12T12:05:32.967Z,1203.75
2018-09-12T12:06:32.956Z,1372.50
2018-09-12T12:07:32.970Z,1383.75
2018-09-12T12:08:32.940Z,1423.12
2018-09-12T12:09:32.930Z,1451.25
2018-09-12T12:10:32.977Z,1468.12
2018-09-12T12:11:32.906Z,1462.50
2018-09-12T12:12:32.899Z,1445.62
2018-09-12T12:13:32.901Z,1468.12
2018-09-12T12:14:32.874Z,1507.50
2018-09-12T12:15:32.865Z,1513.12
2018-09-12T12:16:32.939Z,1535.62
2018-09-12T12:17:32.847Z,1507.50
2018-09-12T12:18:32.848Z,1524.38
2018-09-12T12:19:32.826Z,1541.25
2018-09-12T12:20:32.813Z,1558.12
2018-09-12T12:21:32.803Z,1552.50
2018-09-12T12:22:32.825Z,1496.25
2018-09-12T12:23:32.782Z,1451.25
2018-09-12T12:24:32.812Z,1513.12
2018-09-12T12:25:32.758Z,1608.75
2018-09-12T12:26:32.747Z,1575.00
2018-09-12T12:27:32.758Z,1580.62
2018-09-12T12:28:32.767Z,1580.62
2018-09-12T12:29:32.717Z,1586.25
2018-09-12T12:30:32.742Z,1546.88
2018-09-12T12:31:32.697Z,1518.75
2018-09-12T12:32:32.686Z,1513.12
2018-09-12T12:33:32.679Z,1569.38
2018-09-12T12:34:32.700Z,1597.50
2018-09-12T12:35:32.730Z,1620.00
2018-09-12T12:36:32.677Z,1704.38
2018-09-12T12:37:32.644Z,1659.38
2018-09-12T12:38:32.629Z,1648.12
2018-09-12T12:39:32.626Z,1777.50
2018-09-12T12:40:32.645Z,1771.88
2018-09-12T12:41:32.598Z,1726.88
2018-09-12T12:42:32.585Z,1749.38
2018-09-12T12:43:32.577Z,1788.75
2018-09-12T12:44:32.618Z,1856.25
2018-09-12T12:45:32.562Z,1845.00
2018-09-12T12:46:32.593Z,1822.50